Louisville, KY

10:15 PM EDT on September 20, 2014 (GMT -0400)
Cloverleaf | Change Station
CLOSE
Current Station
Personal Weather Station
Location: Louisville, KY
Elevation: 523 ft
Nearby Weather Stations

Elev 523 ft 38.18 °N, 85.81 °W | Updated 95 days ago

Partly Cloudy
Partly Cloudy
70 °F
Feels Like 70 °F
N
8
Wind Variable Wind from SSW
Gusts 11 mph

Today
High -- | Low -- °F
--% Chance of Precip.
Yesterday
High -- | Low -- °F
Precip. -- in
7:29 AM 7:43 PM
Waning Crescent, 9% visible
Pressure 29.96 in
Visibility 10.0 miles
Clouds Mostly Cloudy 25000 ft
Dew Point 66 °F
Humidity 85%
Rainfall 0.00 in
Snow Depth Not available.
UV 0 out of 12
Pollen 6.70 out of 12
Ozone Good
PM2.5 Moderate
Flu Activity Not available.
METAR KSDF 210156Z 18004KT 10SM BKN250 24/18 A2998 RMK AO2 SLP146 T02390183

More Conditions Fewer Conditions

Pressure 29.96 in
Visibility 10.0 miles
Clouds Mostly Cloudy 25000 ft
Dew Point 66 °F
Humidity 85%
Rainfall 0.00 in
Snow Depth Not available.
UV 0 out of 12
Pollen 6.70 out of 12
Ozone Good
PM2.5 Moderate
Flu Activity Not available.
METAR KSDF 210156Z 18004KT 10SM BKN250 24/18 A2998 RMK AO2 SLP146 T02390183

More Conditions Fewer Conditions

10-Day Weather Forecast

Almanac

Astronomy

Sep. 20, 2014 Rise Set
Actual Time 7:29 AM EDT 7:43 PM EDT
Civil Twilight 7:02 AM EDT 8:09 PM EDT
Nautical Twilight 6:31 AM EDT 8:40 PM EDT
Astronomical Twilight 6:00 AM EDT 9:11 PM EDT
Moon 4:10 AM EDT (9/20) 5:44 PM EDT (9/20)
Length of Visible Light 13h 06m
Length of Day
12h 14m
Tomorrow will be 2m 26s shorter.
Waning Crescent, 9% of the Moon is Illuminated
Today
Waning Crescent
Sep 24
New
Oct 1
First Quarter
Oct 8
Full
Oct 15
Last Quarter

Today's Extremes

State Highs State Lows

Community

WunderPhotos

Upload Photos

1,755,032 photos uploaded!

WunderBlogs® & News

Nearby

Air Quality

  Air Quality AQ Index Pollutant
Yesterday Good
PM10
Yesterday Moderate
OZONE
Current Moderate
PM2.5
Current Good
OZONE
Saturday Moderate
PM2.5
Saturday Good
OZONE
Sunday Good
PM2.5
Sunday Good
OZONE
Monday Good
PM2.5
Monday Good
OZONE

Snow Depth

Station Depth Elevation
No new snow has been reported.

Earthquake Activity

City Distance Mag. Time & Date
No recent earthquake activity has been reported nearby.
Minimum magnitude displayed is 2.5.

Coastal Water Temperatures

Place Temperature
No Stations Reporting

Nearby Weather Stations